sensor_id;sensor_type;location;lat;lon;timestamp;temperature;humidity
53653;DHT22;39553;52.954;5.932;2022-07-23T00:02:21;13.50;99.90
53653;DHT22;39553;52.954;5.932;2022-07-23T00:04:47;13.50;99.90
53653;DHT22;39553;52.954;5.932;2022-07-23T00:07:12;13.40;99.90
53653;DHT22;39553;52.954;5.932;2022-07-23T00:09:39;13.40;99.90
53653;DHT22;39553;52.954;5.932;2022-07-23T00:12:05;13.40;99.90
53653;DHT22;39553;52.954;5.932;2022-07-23T00:14:31;13.30;99.90
53653;DHT22;39553;52.954;5.932;2022-07-23T00:16:56;13.30;99.90
53653;DHT22;39553;52.954;5.932;2022-07-23T00:19:22;13.30;99.90
53653;DHT22;39553;52.954;5.932;2022-07-23T00:21:48;13.30;99.90
53653;DHT22;39553;52.954;5.932;2022-07-23T00:24:14;13.30;99.90
53653;DHT22;39553;52.954;5.932;2022-07-23T00:26:39;13.20;99.90
53653;DHT22;39553;52.954;5.932;2022-07-23T00:29:05;13.30;99.90
53653;DHT22;39553;52.954;5.932;2022-07-23T00:31:31;13.30;99.90
53653;DHT22;39553;52.954;5.932;2022-07-23T00:33:57;13.30;99.90
53653;DHT22;39553;52.954;5.932;2022-07-23T00:36:23;13.20;99.90
53653;DHT22;39553;52.954;5.932;2022-07-23T00:38:49;13.20;99.90
53653;DHT22;39553;52.954;5.932;2022-07-23T00:41:15;13.20;99.90
53653;DHT22;39553;52.954;5.932;2022-07-23T00:43:41;13.20;99.90
53653;DHT22;39553;52.954;5.932;2022-07-23T00:46:07;13.10;99.90
53653;DHT22;39553;52.954;5.932;2022-07-23T00:48:33;13.10;99.90
53653;DHT22;39553;52.954;5.932;2022-07-23T00:50:59;13.10;99.90
53653;DHT22;39553;52.954;5.932;2022-07-23T00:53:25;13.10;99.90
53653;DHT22;39553;52.954;5.932;2022-07-23T00:55:50;13.00;99.90
53653;DHT22;39553;52.954;5.932;2022-07-23T00:58:17;13.00;99.90
53653;DHT22;39553;52.954;5.932;2022-07-23T01:00:44;13.00;99.90
53653;DHT22;39553;52.954;5.932;2022-07-23T01:03:09;13.10;99.90
53653;DHT22;39553;52.954;5.932;2022-07-23T01:05:35;13.00;99.90
53653;DHT22;39553;52.954;5.932;2022-07-23T01:08:01;13.00;99.90
53653;DHT22;39553;52.954;5.932;2022-07-23T01:10:26;13.20;99.90
53653;DHT22;39553;52.954;5.932;2022-07-23T01:13:06;13.00;99.90
53653;DHT22;39553;52.954;5.932;2022-07-23T01:15:33;13.00;99.90
53653;DHT22;39553;52.954;5.932;2022-07-23T01:18:00;13.00;99.90
53653;DHT22;39553;52.954;5.932;2022-07-23T01:20:26;13.10;99.90
53653;DHT22;39553;52.954;5.932;2022-07-23T01:22:52;13.00;99.90
53653;DHT22;39553;52.954;5.932;2022-07-23T01:25:18;13.10;99.90
53653;DHT22;39553;52.954;5.932;2022-07-23T01:27:44;13.10;99.90
53653;DHT22;39553;52.954;5.932;2022-07-23T01:30:11;13.20;99.90
53653;DHT22;39553;52.954;5.932;2022-07-23T01:32:37;13.10;99.90
53653;DHT22;39553;52.954;5.932;2022-07-23T01:35:03;13.10;99.90
53653;DHT22;39553;52.954;5.932;2022-07-23T01:37:29;13.10;99.90
53653;DHT22;39553;52.954;5.932;2022-07-23T01:39:54;13.10;99.90
53653;DHT22;39553;52.954;5.932;2022-07-23T01:42:20;13.10;99.90
53653;DHT22;39553;52.954;5.932;2022-07-23T01:44:46;13.00;99.90
53653;DHT22;39553;52.954;5.932;2022-07-23T01:47:12;13.00;99.90
53653;DHT22;39553;52.954;5.932;2022-07-23T01:49:38;13.00;99.90
53653;DHT22;39553;52.954;5.932;2022-07-23T01:52:04;13.00;99.90
53653;DHT22;39553;52.954;5.932;2022-07-23T01:54:33;12.90;99.90
53653;DHT22;39553;52.954;5.932;2022-07-23T01:57:00;12.90;99.90
53653;DHT22;39553;52.954;5.932;2022-07-23T01:59:26;12.90;99.90
53653;DHT22;39553;52.954;5.932;2022-07-23T02:01:53;12.80;99.90
53653;DHT22;39553;52.954;5.932;2022-07-23T02:04:19;12.90;99.90
53653;DHT22;39553;52.954;5.932;2022-07-23T02:06:46;12.70;99.90
53653;DHT22;39553;52.954;5.932;2022-07-23T02:09:12;12.80;99.90
53653;DHT22;39553;52.954;5.932;2022-07-23T02:11:38;12.80;99.90
53653;DHT22;39553;52.954;5.932;2022-07-23T02:14:04;12.70;99.90
53653;DHT22;39553;52.954;5.932;2022-07-23T02:16:30;12.70;99.90
53653;DHT22;39553;52.954;5.932;2022-07-23T02:18:56;12.70;99.90
53653;DHT22;39553;52.954;5.932;2022-07-23T02:21:22;12.60;99.90
53653;DHT22;39553;52.954;5.932;2022-07-23T02:23:48;12.80;99.90
53653;DHT22;39553;52.954;5.932;2022-07-23T02:26:14;12.60;99.90
53653;DHT22;39553;52.954;5.932;2022-07-23T02:28:40;12.50;99.90
53653;DHT22;39553;52.954;5.932;2022-07-23T02:31:06;12.40;99.90
53653;DHT22;39553;52.954;5.932;2022-07-23T02:33:35;12.50;99.90
53653;DHT22;39553;52.954;5.932;2022-07-23T02:36:00;12.50;99.90
53653;DHT22;39553;52.954;5.932;2022-07-23T02:38:26;12.50;99.90
53653;DHT22;39553;52.954;5.932;2022-07-23T02:40:52;12.40;99.90
53653;DHT22;39553;52.954;5.932;2022-07-23T02:43:18;12.30;99.90
53653;DHT22;39553;52.954;5.932;2022-07-23T02:45:44;12.40;99.90
53653;DHT22;39553;52.954;5.932;2022-07-23T02:48:09;12.30;99.90
53653;DHT22;39553;52.954;5.932;2022-07-23T02:50:38;12.20;99.90
53653;DHT22;39553;52.954;5.932;2022-07-23T02:53:04;12.30;99.90
53653;DHT22;39553;52.954;5.932;2022-07-23T02:55:30;12.30;99.90
53653;DHT22;39553;52.954;5.932;2022-07-23T02:57:56;12.20;99.90
53653;DHT22;39553;52.954;5.932;2022-07-23T03:00:23;12.20;99.90
53653;DHT22;39553;52.954;5.932;2022-07-23T03:02:48;12.20;99.90
53653;DHT22;39553;52.954;5.932;2022-07-23T03:05:14;12.10;99.90
53653;DHT22;39553;52.954;5.932;2022-07-23T03:07:43;12.10;99.90
53653;DHT22;39553;52.954;5.932;2022-07-23T03:10:09;12.10;99.90
53653;DHT22;39553;52.954;5.932;2022-07-23T03:12:34;12.10;99.90
53653;DHT22;39553;52.954;5.932;2022-07-23T03:15:00;12.10;99.90
53653;DHT22;39553;52.954;5.932;2022-07-23T03:17:26;12.00;99.90
53653;DHT22;39553;52.954;5.932;2022-07-23T03:19:52;12.00;99.90
53653;DHT22;39553;52.954;5.932;2022-07-23T03:22:17;11.90;99.90
53653;DHT22;39553;52.954;5.932;2022-07-23T03:24:43;12.00;99.90
53653;DHT22;39553;52.954;5.932;2022-07-23T03:27:24;11.90;99.90
53653;DHT22;39553;52.954;5.932;2022-07-23T03:29:51;11.90;99.90
53653;DHT22;39553;52.954;5.932;2022-07-23T03:32:17;11.90;99.90
53653;DHT22;39553;52.954;5.932;2022-07-23T03:34:43;11.90;99.90
53653;DHT22;39553;52.954;5.932;2022-07-23T03:37:09;11.90;99.90
53653;DHT22;39553;52.954;5.932;2022-07-23T03:39:34;11.80;99.90
53653;DHT22;39553;52.954;5.932;2022-07-23T03:42:00;11.90;99.90
53653;DHT22;39553;52.954;5.932;2022-07-23T03:44:26;11.90;99.90
53653;DHT22;39553;52.954;5.932;2022-07-23T03:46:52;11.90;99.90
53653;DHT22;39553;52.954;5.932;2022-07-23T03:49:17;11.90;99.90
53653;DHT22;39553;52.954;5.932;2022-07-23T03:51:43;11.90;99.90
53653;DHT22;39553;52.954;5.932;2022-07-23T03:54:09;11.90;99.90
53653;DHT22;39553;52.954;5.932;2022-07-23T03:56:35;12.00;99.90
53653;DHT22;39553;52.954;5.932;2022-07-23T03:59:01;11.90;99.90
53653;DHT22;39553;52.954;5.932;2022-07-23T04:01:26;11.90;99.90
53653;DHT22;39553;52.954;5.932;2022-07-23T04:03:52;12.00;99.90
53653;DHT22;39553;52.954;5.932;2022-07-23T04:06:18;12.00;99.90
53653;DHT22;39553;52.954;5.932;2022-07-23T04:08:44;12.00;99.90
53653;DHT22;39553;52.954;5.932;2022-07-23T04:11:10;11.90;99.90
53653;DHT22;39553;52.954;5.932;2022-07-23T04:13:35;11.90;99.90
53653;DHT22;39553;52.954;5.932;2022-07-23T04:16:01;12.10;99.90
53653;DHT22;39553;52.954;5.932;2022-07-23T04:18:28;12.20;99.90
53653;DHT22;39553;52.954;5.932;2022-07-23T04:20:54;12.20;99.90
53653;DHT22;39553;52.954;5.932;2022-07-23T04:23:20;12.40;99.90
53653;DHT22;39553;52.954;5.932;2022-07-23T04:25:46;12.60;99.90
53653;DHT22;39553;52.954;5.932;2022-07-23T04:28:11;12.40;99.90
53653;DHT22;39553;52.954;5.932;2022-07-23T04:30:38;12.40;99.90
53653;DHT22;39553;52.954;5.932;2022-07-23T04:33:04;12.40;99.90
53653;DHT22;39553;52.954;5.932;2022-07-23T04:35:33;12.50;99.90
53653;DHT22;39553;52.954;5.932;2022-07-23T04:37:59;12.60;99.90
53653;DHT22;39553;52.954;5.932;2022-07-23T04:40:25;12.50;99.90
53653;DHT22;39553;52.954;5.932;2022-07-23T04:42:51;12.70;99.90
53653;DHT22;39553;52.954;5.932;2022-07-23T04:45:17;13.10;99.90
53653;DHT22;39553;52.954;5.932;2022-07-23T04:47:42;13.40;99.90
53653;DHT22;39553;52.954;5.932;2022-07-23T04:50:08;13.70;99.90
53653;DHT22;39553;52.954;5.932;2022-07-23T04:52:35;13.80;99.90
53653;DHT22;39553;52.954;5.932;2022-07-23T04:55:01;13.80;99.90
53653;DHT22;39553;52.954;5.932;2022-07-23T04:57:27;13.70;99.90
53653;DHT22;39553;52.954;5.932;2022-07-23T04:59:53;13.70;99.90
53653;DHT22;39553;52.954;5.932;2022-07-23T05:02:18;13.60;99.90
53653;DHT22;39553;52.954;5.932;2022-07-23T05:04:44;13.60;99.90
53653;DHT22;39553;52.954;5.932;2022-07-23T05:07:10;13.70;99.90
53653;DHT22;39553;52.954;5.932;2022-07-23T05:09:36;13.70;99.90
53653;DHT22;39553;52.954;5.932;2022-07-23T05:12:01;13.70;99.90
53653;DHT22;39553;52.954;5.932;2022-07-23T05:14:27;13.80;99.90
53653;DHT22;39553;52.954;5.932;2022-07-23T05:16:54;13.90;99.90
53653;DHT22;39553;52.954;5.932;2022-07-23T05:19:20;13.90;99.90
53653;DHT22;39553;52.954;5.932;2022-07-23T05:21:45;14.00;99.90
53653;DHT22;39553;52.954;5.932;2022-07-23T05:24:11;14.10;99.90
53653;DHT22;39553;52.954;5.932;2022-07-23T05:26:37;14.20;99.90
53653;DHT22;39553;52.954;5.932;2022-07-23T05:29:03;14.20;99.90
53653;DHT22;39553;52.954;5.932;2022-07-23T05:31:28;14.30;99.90
53653;DHT22;39553;52.954;5.932;2022-07-23T05:33:54;14.40;99.90
53653;DHT22;39553;52.954;5.932;2022-07-23T05:36:20;14.50;99.90
53653;DHT22;39553;52.954;5.932;2022-07-23T05:38:46;14.60;99.90
53653;DHT22;39553;52.954;5.932;2022-07-23T05:41:11;14.60;99.90
53653;DHT22;39553;52.954;5.932;2022-07-23T05:43:38;14.70;99.90
53653;DHT22;39553;52.954;5.932;2022-07-23T05:46:04;14.80;99.90
53653;DHT22;39553;52.954;5.932;2022-07-23T05:48:30;14.90;99.90
53653;DHT22;39553;52.954;5.932;2022-07-23T05:50:56;15.00;99.90
53653;DHT22;39553;52.954;5.932;2022-07-23T05:53:22;15.00;99.90
53653;DHT22;39553;52.954;5.932;2022-07-23T05:55:48;15.10;99.90
53653;DHT22;39553;52.954;5.932;2022-07-23T05:58:14;15.20;99.90
53653;DHT22;39553;52.954;5.932;2022-07-23T06:00:39;15.30;99.90
53653;DHT22;39553;52.954;5.932;2022-07-23T06:03:05;15.40;99.90
53653;DHT22;39553;52.954;5.932;2022-07-23T06:05:31;15.50;99.90
53653;DHT22;39553;52.954;5.932;2022-07-23T06:07:57;15.60;99.90
53653;DHT22;39553;52.954;5.932;2022-07-23T06:10:23;15.80;99.90
53653;DHT22;39553;52.954;5.932;2022-07-23T06:12:49;16.20;99.90
53653;DHT22;39553;52.954;5.932;2022-07-23T06:15:15;16.80;99.90
53653;DHT22;39553;52.954;5.932;2022-07-23T06:17:40;17.40;99.90
53653;DHT22;39553;52.954;5.932;2022-07-23T06:20:08;17.90;99.90
53653;DHT22;39553;52.954;5.932;2022-07-23T06:22:36;18.10;99.90
53653;DHT22;39553;52.954;5.932;2022-07-23T06:25:05;18.30;99.90
53653;DHT22;39553;52.954;5.932;2022-07-23T06:27:31;18.80;99.90
53653;DHT22;39553;52.954;5.932;2022-07-23T06:29:57;19.30;99.90
53653;DHT22;39553;52.954;5.932;2022-07-23T06:32:22;19.40;99.90
53653;DHT22;39553;52.954;5.932;2022-07-23T06:34:48;19.50;99.90
53653;DHT22;39553;52.954;5.932;2022-07-23T06:37:19;19.80;99.90
53653;DHT22;39553;52.954;5.932;2022-07-23T06:39:47;19.80;99.90
53653;DHT22;39553;52.954;5.932;2022-07-23T06:42:13;19.50;99.90
53653;DHT22;39553;52.954;5.932;2022-07-23T06:44:40;19.10;99.90
53653;DHT22;39553;52.954;5.932;2022-07-23T06:47:06;18.40;99.90
53653;DHT22;39553;52.954;5.932;2022-07-23T06:49:31;17.90;99.90
53653;DHT22;39553;52.954;5.932;2022-07-23T06:51:57;17.50;99.90
53653;DHT22;39553;52.954;5.932;2022-07-23T06:54:23;17.60;99.90
53653;DHT22;39553;52.954;5.932;2022-07-23T06:56:49;18.10;99.90
53653;DHT22;39553;52.954;5.932;2022-07-23T06:59:15;18.50;99.90
53653;DHT22;39553;52.954;5.932;2022-07-23T07:01:40;18.90;99.90
53653;DHT22;39553;52.954;5.932;2022-07-23T07:04:06;19.10;99.90
53653;DHT22;39553;52.954;5.932;2022-07-23T07:06:32;19.10;99.90
53653;DHT22;39553;52.954;5.932;2022-07-23T07:08:58;19.50;99.90
53653;DHT22;39553;52.954;5.932;2022-07-23T07:11:24;19.50;99.90
53653;DHT22;39553;52.954;5.932;2022-07-23T07:13:51;19.90;99.90
53653;DHT22;39553;52.954;5.932;2022-07-23T07:16:17;20.20;99.90
53653;DHT22;39553;52.954;5.932;2022-07-23T07:18:43;20.20;99.90
53653;DHT22;39553;52.954;5.932;2022-07-23T07:21:09;20.50;99.90
53653;DHT22;39553;52.954;5.932;2022-07-23T07:23:34;21.10;99.90
53653;DHT22;39553;52.954;5.932;2022-07-23T07:26:00;21.50;99.90
53653;DHT22;39553;52.954;5.932;2022-07-23T07:28:26;21.80;99.90
53653;DHT22;39553;52.954;5.932;2022-07-23T07:30:52;21.90;99.90
53653;DHT22;39553;52.954;5.932;2022-07-23T07:33:18;22.40;99.90
53653;DHT22;39553;52.954;5.932;2022-07-23T07:35:44;22.50;99.90
53653;DHT22;39553;52.954;5.932;2022-07-23T07:38:10;22.40;99.90
53653;DHT22;39553;52.954;5.932;2022-07-23T07:40:35;22.40;99.90
53653;DHT22;39553;52.954;5.932;2022-07-23T07:43:01;22.00;99.90
53653;DHT22;39553;52.954;5.932;2022-07-23T07:45:29;21.80;99.90
53653;DHT22;39553;52.954;5.932;2022-07-23T07:47:55;21.70;99.90
53653;DHT22;39553;52.954;5.932;2022-07-23T07:50:21;21.70;99.90
53653;DHT22;39553;52.954;5.932;2022-07-23T07:52:47;22.00;99.90
53653;DHT22;39553;52.954;5.932;2022-07-23T07:55:13;22.30;99.90
53653;DHT22;39553;52.954;5.932;2022-07-23T07:57:39;22.20;99.90
53653;DHT22;39553;52.954;5.932;2022-07-23T08:00:07;22.40;99.90
53653;DHT22;39553;52.954;5.932;2022-07-23T08:02:48;22.70;99.90
53653;DHT22;39553;52.954;5.932;2022-07-23T08:05:18;22.70;97.70
53653;DHT22;39553;52.954;5.932;2022-07-23T08:07:44;22.50;99.50
53653;DHT22;39553;52.954;5.932;2022-07-23T08:10:10;22.20;98.60
53653;DHT22;39553;52.954;5.932;2022-07-23T08:12:41;21.80;99.10
53653;DHT22;39553;52.954;5.932;2022-07-23T08:15:07;21.10;99.00
53653;DHT22;39553;52.954;5.932;2022-07-23T08:17:33;20.70;99.90
53653;DHT22;39553;52.954;5.932;2022-07-23T08:19:59;20.60;99.90
53653;DHT22;39553;52.954;5.932;2022-07-23T08:22:25;20.30;99.90
53653;DHT22;39553;52.954;5.932;2022-07-23T08:24:50;20.10;99.90
53653;DHT22;39553;52.954;5.932;2022-07-23T08:27:16;19.50;99.90
53653;DHT22;39553;52.954;5.932;2022-07-23T08:29:42;19.20;99.90
53653;DHT22;39553;52.954;5.932;2022-07-23T08:32:08;19.10;99.90
53653;DHT22;39553;52.954;5.932;2022-07-23T08:34:33;19.30;99.90
53653;DHT22;39553;52.954;5.932;2022-07-23T08:36:59;19.40;99.90
53653;DHT22;39553;52.954;5.932;2022-07-23T08:39:25;19.60;99.90
53653;DHT22;39553;52.954;5.932;2022-07-23T08:41:50;19.60;99.90
53653;DHT22;39553;52.954;5.932;2022-07-23T08:44:16;19.40;99.90
53653;DHT22;39553;52.954;5.932;2022-07-23T08:46:43;19.20;99.90
53653;DHT22;39553;52.954;5.932;2022-07-23T08:49:10;19.10;99.90
53653;DHT22;39553;52.954;5.932;2022-07-23T08:51:35;19.20;99.90
53653;DHT22;39553;52.954;5.932;2022-07-23T08:54:01;19.20;99.90
53653;DHT22;39553;52.954;5.932;2022-07-23T08:56:27;19.20;99.90
53653;DHT22;39553;52.954;5.932;2022-07-23T08:58:54;19.20;99.90
53653;DHT22;39553;52.954;5.932;2022-07-23T09:01:20;19.30;99.90
53653;DHT22;39553;52.954;5.932;2022-07-23T09:03:46;19.30;99.90
53653;DHT22;39553;52.954;5.932;2022-07-23T09:06:11;19.40;99.90
53653;DHT22;39553;52.954;5.932;2022-07-23T09:08:42;19.40;99.90
53653;DHT22;39553;52.954;5.932;2022-07-23T09:11:10;19.30;99.90
53653;DHT22;39553;52.954;5.932;2022-07-23T09:13:49;19.20;99.90
53653;DHT22;39553;52.954;5.932;2022-07-23T09:16:25;19.30;99.90
53653;DHT22;39553;52.954;5.932;2022-07-23T09:18:59;19.20;99.90
53653;DHT22;39553;52.954;5.932;2022-07-23T09:21:30;19.20;99.90
53653;DHT22;39553;52.954;5.932;2022-07-23T09:24:07;19.20;99.90
53653;DHT22;39553;52.954;5.932;2022-07-23T09:26:40;19.30;99.90
53653;DHT22;39553;52.954;5.932;2022-07-23T09:29:18;19.40;99.90
53653;DHT22;39553;52.954;5.932;2022-07-23T09:31:53;19.70;99.90
53653;DHT22;39553;52.954;5.932;2022-07-23T09:36:58;19.70;99.90
53653;DHT22;39553;52.954;5.932;2022-07-23T09:39:30;19.60;99.90
53653;DHT22;39553;52.954;5.932;2022-07-23T09:41:56;19.60;99.90
53653;DHT22;39553;52.954;5.932;2022-07-23T09:44:23;20.20;99.90
53653;DHT22;39553;52.954;5.932;2022-07-23T09:46:50;20.60;99.90
53653;DHT22;39553;52.954;5.932;2022-07-23T09:49:18;20.80;99.90
53653;DHT22;39553;52.954;5.932;2022-07-23T09:51:55;21.30;99.90
53653;DHT22;39553;52.954;5.932;2022-07-23T09:54:27;21.80;99.90
53653;DHT22;39553;52.954;5.932;2022-07-23T09:56:55;22.20;99.90
53653;DHT22;39553;52.954;5.932;2022-07-23T09:59:34;22.20;99.90
53653;DHT22;39553;52.954;5.932;2022-07-23T10:02:00;21.90;99.90
53653;DHT22;39553;52.954;5.932;2022-07-23T10:04:29;21.70;99.90
53653;DHT22;39553;52.954;5.932;2022-07-23T10:06:58;21.80;99.90
53653;DHT22;39553;52.954;5.932;2022-07-23T10:09:30;21.40;99.90
53653;DHT22;39553;52.954;5.932;2022-07-23T10:12:00;21.00;99.90
53653;DHT22;39553;52.954;5.932;2022-07-23T10:14:32;21.00;99.90
53653;DHT22;39553;52.954;5.932;2022-07-23T10:17:01;20.80;99.90
53653;DHT22;39553;52.954;5.932;2022-07-23T10:19:28;20.50;99.90
53653;DHT22;39553;52.954;5.932;2022-07-23T10:22:09;20.40;99.90
53653;DHT22;39553;52.954;5.932;2022-07-23T10:24:58;20.60;99.90
53653;DHT22;39553;52.954;5.932;2022-07-23T10:30:31;21.40;99.90
53653;DHT22;39553;52.954;5.932;2022-07-23T10:33:20;21.80;99.90
53653;DHT22;39553;52.954;5.932;2022-07-23T10:36:11;21.50;99.90
53653;DHT22;39553;52.954;5.932;2022-07-23T10:41:13;21.40;99.90
53653;DHT22;39553;52.954;5.932;2022-07-23T10:43:39;21.70;99.90
53653;DHT22;39553;52.954;5.932;2022-07-23T10:46:24;21.80;99.90
53653;DHT22;39553;52.954;5.932;2022-07-23T10:49:25;22.40;99.90
53653;DHT22;39553;52.954;5.932;2022-07-23T10:54:39;23.00;99.30
53653;DHT22;39553;52.954;5.932;2022-07-23T10:57:06;23.40;99.60
53653;DHT22;39553;52.954;5.932;2022-07-23T11:02:48;22.90;98.90
53653;DHT22;39553;52.954;5.932;2022-07-23T11:05:20;22.40;99.90
53653;DHT22;39553;52.954;5.932;2022-07-23T11:10:47;21.70;99.90
53653;DHT22;39553;52.954;5.932;2022-07-23T11:24:00;22.40;99.90
53653;DHT22;39553;52.954;5.932;2022-07-23T11:34:35;22.90;99.90
53653;DHT22;39553;52.954;5.932;2022-07-23T11:37:03;23.40;99.70
53653;DHT22;39553;52.954;5.932;2022-07-23T11:39:30;23.20;99.90
53653;DHT22;39553;52.954;5.932;2022-07-23T11:41:57;22.80;99.90
53653;DHT22;39553;52.954;5.932;2022-07-23T11:44:27;22.20;99.90
53653;DHT22;39553;52.954;5.932;2022-07-23T11:47:05;21.70;99.90
53653;DHT22;39553;52.954;5.932;2022-07-23T11:49:32;21.50;99.90
53653;DHT22;39553;52.954;5.932;2022-07-23T11:52:09;21.30;99.90
53653;DHT22;39553;52.954;5.932;2022-07-23T11:54:42;21.50;99.90
53653;DHT22;39553;52.954;5.932;2022-07-23T11:57:11;22.00;99.90
53653;DHT22;39553;52.954;5.932;2022-07-23T11:59:39;21.80;99.90
53653;DHT22;39553;52.954;5.932;2022-07-23T12:02:05;21.60;99.90
53653;DHT22;39553;52.954;5.932;2022-07-23T12:09:52;21.80;99.90
53653;DHT22;39553;52.954;5.932;2022-07-23T12:12:19;22.00;99.90
53653;DHT22;39553;52.954;5.932;2022-07-23T12:15:03;22.10;99.90
53653;DHT22;39553;52.954;5.932;2022-07-23T12:17:35;22.20;99.90
53653;DHT22;39553;52.954;5.932;2022-07-23T12:20:04;22.00;99.90
53653;DHT22;39553;52.954;5.932;2022-07-23T12:22:46;21.90;99.90
53653;DHT22;39553;52.954;5.932;2022-07-23T12:25:13;21.70;99.90
53653;DHT22;39553;52.954;5.932;2022-07-23T12:27:41;21.60;99.90
53653;DHT22;39553;52.954;5.932;2022-07-23T12:30:24;21.60;99.90
53653;DHT22;39553;52.954;5.932;2022-07-23T12:32:53;21.30;99.90
53653;DHT22;39553;52.954;5.932;2022-07-23T12:35:20;21.10;99.90
53653;DHT22;39553;52.954;5.932;2022-07-23T12:37:48;21.20;99.90
53653;DHT22;39553;52.954;5.932;2022-07-23T12:40:27;21.40;99.90
53653;DHT22;39553;52.954;5.932;2022-07-23T12:43:18;21.40;99.90
53653;DHT22;39553;52.954;5.932;2022-07-23T12:46:00;21.30;99.90
53653;DHT22;39553;52.954;5.932;2022-07-23T12:48:32;21.30;99.90
53653;DHT22;39553;52.954;5.932;2022-07-23T12:51:17;21.20;99.90
53653;DHT22;39553;52.954;5.932;2022-07-23T12:53:49;21.30;99.90
53653;DHT22;39553;52.954;5.932;2022-07-23T12:56:15;21.20;99.90
53653;DHT22;39553;52.954;5.932;2022-07-23T13:03:57;21.60;99.90
53653;DHT22;39553;52.954;5.932;2022-07-23T13:06:24;21.70;99.90
53653;DHT22;39553;52.954;5.932;2022-07-23T13:08:50;21.60;99.90
53653;DHT22;39553;52.954;5.932;2022-07-23T13:11:16;21.40;99.90
53653;DHT22;39553;52.954;5.932;2022-07-23T13:13:42;21.50;99.90
53653;DHT22;39553;52.954;5.932;2022-07-23T13:16:08;21.50;99.90
53653;DHT22;39553;52.954;5.932;2022-07-23T13:18:33;21.30;99.90
53653;DHT22;39553;52.954;5.932;2022-07-23T13:20:59;21.20;99.90
53653;DHT22;39553;52.954;5.932;2022-07-23T13:23:26;21.10;99.90
53653;DHT22;39553;52.954;5.932;2022-07-23T13:25:52;21.10;99.90
53653;DHT22;39553;52.954;5.932;2022-07-23T13:28:20;21.20;99.90
53653;DHT22;39553;52.954;5.932;2022-07-23T13:30:47;21.30;99.90
53653;DHT22;39553;52.954;5.932;2022-07-23T13:33:16;21.40;99.90
53653;DHT22;39553;52.954;5.932;2022-07-23T13:35:42;21.30;99.90
53653;DHT22;39553;52.954;5.932;2022-07-23T13:38:08;21.20;99.90
53653;DHT22;39553;52.954;5.932;2022-07-23T13:40:39;21.20;99.90
53653;DHT22;39553;52.954;5.932;2022-07-23T13:43:08;21.20;99.90
53653;DHT22;39553;52.954;5.932;2022-07-23T13:45:34;21.20;99.90
53653;DHT22;39553;52.954;5.932;2022-07-23T13:48:01;21.20;99.90
53653;DHT22;39553;52.954;5.932;2022-07-23T13:50:27;21.30;99.90
53653;DHT22;39553;52.954;5.932;2022-07-23T13:52:53;21.30;99.90
53653;DHT22;39553;52.954;5.932;2022-07-23T13:55:19;21.40;99.90
53653;DHT22;39553;52.954;5.932;2022-07-23T13:57:45;21.30;99.90
53653;DHT22;39553;52.954;5.932;2022-07-23T14:00:11;21.20;99.90
53653;DHT22;39553;52.954;5.932;2022-07-23T14:02:38;21.20;99.90
53653;DHT22;39553;52.954;5.932;2022-07-23T14:05:09;21.30;99.90
53653;DHT22;39553;52.954;5.932;2022-07-23T14:07:37;21.30;99.90
53653;DHT22;39553;52.954;5.932;2022-07-23T14:10:04;21.30;99.90
53653;DHT22;39553;52.954;5.932;2022-07-23T14:12:30;21.30;99.90
53653;DHT22;39553;52.954;5.932;2022-07-23T14:14:56;21.30;99.90
53653;DHT22;39553;52.954;5.932;2022-07-23T14:17:22;21.30;99.90
53653;DHT22;39553;52.954;5.932;2022-07-23T14:19:48;21.20;99.90
53653;DHT22;39553;52.954;5.932;2022-07-23T14:22:14;21.10;99.90
53653;DHT22;39553;52.954;5.932;2022-07-23T14:24:40;21.10;99.90
53653;DHT22;39553;52.954;5.932;2022-07-23T14:27:06;21.10;99.90
53653;DHT22;39553;52.954;5.932;2022-07-23T14:29:32;21.10;99.90
53653;DHT22;39553;52.954;5.932;2022-07-23T14:31:59;21.10;99.90
53653;DHT22;39553;52.954;5.932;2022-07-23T14:34:26;21.10;99.90
53653;DHT22;39553;52.954;5.932;2022-07-23T14:36:52;21.10;99.90
53653;DHT22;39553;52.954;5.932;2022-07-23T14:39:18;21.10;99.90
53653;DHT22;39553;52.954;5.932;2022-07-23T14:41:44;21.20;99.90
53653;DHT22;39553;52.954;5.932;2022-07-23T14:44:10;21.20;99.90
53653;DHT22;39553;52.954;5.932;2022-07-23T14:46:36;21.40;99.90
53653;DHT22;39553;52.954;5.932;2022-07-23T14:49:02;21.30;99.90
53653;DHT22;39553;52.954;5.932;2022-07-23T14:51:28;21.30;99.90
53653;DHT22;39553;52.954;5.932;2022-07-23T14:53:54;21.40;99.90
53653;DHT22;39553;52.954;5.932;2022-07-23T14:56:20;21.40;99.90
53653;DHT22;39553;52.954;5.932;2022-07-23T14:58:46;21.40;99.90
53653;DHT22;39553;52.954;5.932;2022-07-23T15:01:12;21.40;99.90
53653;DHT22;39553;52.954;5.932;2022-07-23T15:03:37;21.30;99.90
53653;DHT22;39553;52.954;5.932;2022-07-23T15:06:04;21.30;99.90
53653;DHT22;39553;52.954;5.932;2022-07-23T15:08:29;21.30;99.90
53653;DHT22;39553;52.954;5.932;2022-07-23T15:10:56;21.40;99.90
53653;DHT22;39553;52.954;5.932;2022-07-23T15:13:21;21.50;99.90
53653;DHT22;39553;52.954;5.932;2022-07-23T15:15:47;21.50;99.90
53653;DHT22;39553;52.954;5.932;2022-07-23T15:18:13;21.40;99.90
53653;DHT22;39553;52.954;5.932;2022-07-23T15:20:39;21.40;99.90
53653;DHT22;39553;52.954;5.932;2022-07-23T15:23:05;21.40;99.90
53653;DHT22;39553;52.954;5.932;2022-07-23T15:25:31;21.40;99.90
53653;DHT22;39553;52.954;5.932;2022-07-23T15:27:58;21.60;99.90
53653;DHT22;39553;52.954;5.932;2022-07-23T15:30:26;21.60;99.90
53653;DHT22;39553;52.954;5.932;2022-07-23T15:32:51;21.60;99.90
53653;DHT22;39553;52.954;5.932;2022-07-23T15:35:17;21.70;99.90
53653;DHT22;39553;52.954;5.932;2022-07-23T15:37:44;21.70;99.90
53653;DHT22;39553;52.954;5.932;2022-07-23T15:40:10;21.60;99.90
53653;DHT22;39553;52.954;5.932;2022-07-23T15:42:36;21.60;99.90
53653;DHT22;39553;52.954;5.932;2022-07-23T15:45:03;21.50;99.90
53653;DHT22;39553;52.954;5.932;2022-07-23T15:47:29;21.50;99.90
53653;DHT22;39553;52.954;5.932;2022-07-23T15:49:54;21.40;99.90
53653;DHT22;39553;52.954;5.932;2022-07-23T15:52:20;21.40;99.90
53653;DHT22;39553;52.954;5.932;2022-07-23T15:54:46;21.50;99.90
53653;DHT22;39553;52.954;5.932;2022-07-23T15:57:12;21.40;99.90
53653;DHT22;39553;52.954;5.932;2022-07-23T15:59:38;21.40;99.90
53653;DHT22;39553;52.954;5.932;2022-07-23T16:02:04;21.30;99.90
53653;DHT22;39553;52.954;5.932;2022-07-23T16:04:31;21.20;99.90
53653;DHT22;39553;52.954;5.932;2022-07-23T16:06:57;21.30;99.90
53653;DHT22;39553;52.954;5.932;2022-07-23T16:09:24;21.40;99.90
53653;DHT22;39553;52.954;5.932;2022-07-23T16:11:51;21.40;99.90
53653;DHT22;39553;52.954;5.932;2022-07-23T16:14:19;21.40;99.90
53653;DHT22;39553;52.954;5.932;2022-07-23T16:16:44;21.40;99.90
53653;DHT22;39553;52.954;5.932;2022-07-23T16:19:10;21.50;99.90